sensor_id;sensor_type;location;lat;lon;timestamp;P1;durP1;ratioP1;P2;durP2;ratioP2
73170;SDS011;61381;50.118;19.962;2023-08-07T00:00:09;4.30;;;3.13;;
73170;SDS011;61381;50.118;19.962;2023-08-07T00:05:30;5.40;;;3.53;;
73170;SDS011;61381;50.118;19.962;2023-08-07T00:10:31;4.30;;;3.00;;
73170;SDS011;61381;50.118;19.962;2023-08-07T00:15:33;4.55;;;3.20;;
73170;SDS011;61381;50.118;19.962;2023-08-07T00:20:34;6.28;;;3.50;;
73170;SDS011;61381;50.118;19.962;2023-08-07T00:25:35;5.18;;;3.90;;
73170;SDS011;61381;50.118;19.962;2023-08-07T00:30:37;4.78;;;3.63;;
73170;SDS011;61381;50.118;19.962;2023-08-07T00:35:38;6.40;;;3.95;;
73170;SDS011;61381;50.118;19.962;2023-08-07T00:40:39;7.22;;;4.00;;
73170;SDS011;61381;50.118;19.962;2023-08-07T00:45:43;5.65;;;4.50;;
73170;SDS011;61381;50.118;19.962;2023-08-07T00:50:48;7.80;;;4.72;;
73170;SDS011;61381;50.118;19.962;2023-08-07T00:55:49;8.00;;;4.88;;
73170;SDS011;61381;50.118;19.962;2023-08-07T01:00:52;6.93;;;4.97;;
73170;SDS011;61381;50.118;19.962;2023-08-07T01:05:53;8.60;;;4.60;;
73170;SDS011;61381;50.118;19.962;2023-08-07T01:10:59;9.73;;;5.30;;
73170;SDS011;61381;50.118;19.962;2023-08-07T01:16:13;8.73;;;5.57;;
73170;SDS011;61381;50.118;19.962;2023-08-07T01:21:18;8.85;;;5.32;;
73170;SDS011;61381;50.118;19.962;2023-08-07T01:26:21;8.10;;;5.82;;
73170;SDS011;61381;50.118;19.962;2023-08-07T01:31:22;9.25;;;5.43;;
73170;SDS011;61381;50.118;19.962;2023-08-07T01:36:26;11.98;;;6.47;;
73170;SDS011;61381;50.118;19.962;2023-08-07T01:41:30;12.73;;;6.30;;
73170;SDS011;61381;50.118;19.962;2023-08-07T01:46:31;9.10;;;5.55;;
73170;SDS011;61381;50.118;19.962;2023-08-07T01:51:32;11.77;;;6.70;;
73170;SDS011;61381;50.118;19.962;2023-08-07T01:56:34;8.85;;;6.03;;
73170;SDS011;61381;50.118;19.962;2023-08-07T02:01:35;9.50;;;5.50;;
73170;SDS011;61381;50.118;19.962;2023-08-07T02:06:36;10.07;;;6.05;;
73170;SDS011;61381;50.118;19.962;2023-08-07T02:11:38;7.93;;;5.93;;
73170;SDS011;61381;50.118;19.962;2023-08-07T02:16:39;8.50;;;5.68;;
73170;SDS011;61381;50.118;19.962;2023-08-07T02:21:40;10.00;;;5.30;;
73170;SDS011;61381;50.118;19.962;2023-08-07T02:26:42;8.73;;;5.45;;
73170;SDS011;61381;50.118;19.962;2023-08-07T02:31:43;10.45;;;5.88;;
73170;SDS011;61381;50.118;19.962;2023-08-07T02:36:44;9.43;;;6.07;;
73170;SDS011;61381;50.118;19.962;2023-08-07T02:41:46;10.18;;;5.95;;
73170;SDS011;61381;50.118;19.962;2023-08-07T02:46:47;10.80;;;6.75;;
73170;SDS011;61381;50.118;19.962;2023-08-07T02:51:48;13.77;;;6.95;;
73170;SDS011;61381;50.118;19.962;2023-08-07T02:56:50;11.05;;;6.72;;
73170;SDS011;61381;50.118;19.962;2023-08-07T03:01:51;7.75;;;4.80;;
73170;SDS011;61381;50.118;19.962;2023-08-07T03:06:52;9.77;;;6.25;;
73170;SDS011;61381;50.118;19.962;2023-08-07T03:11:54;7.80;;;5.28;;
73170;SDS011;61381;50.118;19.962;2023-08-07T03:16:55;7.85;;;5.45;;
73170;SDS011;61381;50.118;19.962;2023-08-07T03:21:56;6.55;;;4.85;;
73170;SDS011;61381;50.118;19.962;2023-08-07T03:26:58;8.80;;;5.65;;
73170;SDS011;61381;50.118;19.962;2023-08-07T03:31:59;8.50;;;6.22;;
73170;SDS011;61381;50.118;19.962;2023-08-07T03:37:00;13.57;;;6.60;;
73170;SDS011;61381;50.118;19.962;2023-08-07T03:42:02;11.18;;;7.00;;
73170;SDS011;61381;50.118;19.962;2023-08-07T03:47:04;7.18;;;5.30;;
73170;SDS011;61381;50.118;19.962;2023-08-07T03:52:05;8.07;;;5.30;;
73170;SDS011;61381;50.118;19.962;2023-08-07T03:57:08;12.02;;;6.00;;
73170;SDS011;61381;50.118;19.962;2023-08-07T04:02:09;7.80;;;5.20;;
73170;SDS011;61381;50.118;19.962;2023-08-07T04:07:10;8.40;;;4.88;;
73170;SDS011;61381;50.118;19.962;2023-08-07T04:12:12;6.78;;;4.90;;
73170;SDS011;61381;50.118;19.962;2023-08-07T04:17:13;4.32;;;3.65;;
73170;SDS011;61381;50.118;19.962;2023-08-07T04:22:14;7.53;;;4.35;;
73170;SDS011;61381;50.118;19.962;2023-08-07T04:27:16;3.90;;;2.58;;
73170;SDS011;61381;50.118;19.962;2023-08-07T04:32:17;4.95;;;3.83;;
73170;SDS011;61381;50.118;19.962;2023-08-07T04:37:17;6.65;;;3.80;;
73170;SDS011;61381;50.118;19.962;2023-08-07T04:42:20;6.10;;;3.67;;
73170;SDS011;61381;50.118;19.962;2023-08-07T04:47:21;4.88;;;3.58;;
73170;SDS011;61381;50.118;19.962;2023-08-07T04:52:21;4.35;;;3.47;;
73170;SDS011;61381;50.118;19.962;2023-08-07T04:57:24;5.75;;;3.92;;
73170;SDS011;61381;50.118;19.962;2023-08-07T05:02:24;4.40;;;3.17;;
73170;SDS011;61381;50.118;19.962;2023-08-07T05:07:25;6.25;;;3.63;;
73170;SDS011;61381;50.118;19.962;2023-08-07T05:12:28;4.82;;;3.78;;
73170;SDS011;61381;50.118;19.962;2023-08-07T05:17:29;5.35;;;2.97;;
73170;SDS011;61381;50.118;19.962;2023-08-07T05:22:31;4.93;;;3.50;;
73170;SDS011;61381;50.118;19.962;2023-08-07T05:27:33;2.63;;;2.33;;
73170;SDS011;61381;50.118;19.962;2023-08-07T05:32:34;2.60;;;2.40;;
73170;SDS011;61381;50.118;19.962;2023-08-07T05:37:35;2.70;;;2.20;;
73170;SDS011;61381;50.118;19.962;2023-08-07T05:42:37;1.98;;;1.88;;
73170;SDS011;61381;50.118;19.962;2023-08-07T05:47:38;1.85;;;1.73;;
73170;SDS011;61381;50.118;19.962;2023-08-07T05:52:39;2.08;;;1.88;;
73170;SDS011;61381;50.118;19.962;2023-08-07T05:57:41;2.58;;;2.38;;
73170;SDS011;61381;50.118;19.962;2023-08-07T06:02:42;2.15;;;1.95;;
73170;SDS011;61381;50.118;19.962;2023-08-07T06:07:43;2.65;;;2.20;;
73170;SDS011;61381;50.118;19.962;2023-08-07T06:12:45;2.30;;;1.40;;
73170;SDS011;61381;50.118;19.962;2023-08-07T06:17:46;1.67;;;1.58;;
73170;SDS011;61381;50.118;19.962;2023-08-07T06:22:47;2.58;;;1.90;;
73170;SDS011;61381;50.118;19.962;2023-08-07T06:27:50;1.65;;;1.20;;
73170;SDS011;61381;50.118;19.962;2023-08-07T06:32:51;1.50;;;1.40;;
73170;SDS011;61381;50.118;19.962;2023-08-07T06:37:51;1.85;;;1.10;;
73170;SDS011;61381;50.118;19.962;2023-08-07T06:42:54;1.15;;;1.02;;
73170;SDS011;61381;50.118;19.962;2023-08-07T06:47:54;1.05;;;0.98;;
73170;SDS011;61381;50.118;19.962;2023-08-07T06:52:55;2.55;;;1.13;;
73170;SDS011;61381;50.118;19.962;2023-08-07T06:57:57;1.13;;;1.00;;
73170;SDS011;61381;50.118;19.962;2023-08-07T07:02:59;1.35;;;1.10;;
73170;SDS011;61381;50.118;19.962;2023-08-07T07:08:00;1.77;;;0.90;;
73170;SDS011;61381;50.118;19.962;2023-08-07T07:13:02;1.30;;;1.20;;
73170;SDS011;61381;50.118;19.962;2023-08-07T07:18:03;1.35;;;1.13;;
73170;SDS011;61381;50.118;19.962;2023-08-07T07:23:03;1.50;;;1.40;;
73170;SDS011;61381;50.118;19.962;2023-08-07T07:28:07;1.40;;;1.30;;
73170;SDS011;61381;50.118;19.962;2023-08-07T07:33:08;1.67;;;1.00;;
73170;SDS011;61381;50.118;19.962;2023-08-07T07:38:08;2.10;;;1.10;;
73170;SDS011;61381;50.118;19.962;2023-08-07T07:43:11;1.45;;;1.10;;
73170;SDS011;61381;50.118;19.962;2023-08-07T07:48:12;1.05;;;0.70;;
73170;SDS011;61381;50.118;19.962;2023-08-07T07:53:13;1.38;;;1.13;;
73170;SDS011;61381;50.118;19.962;2023-08-07T07:58:15;0.93;;;0.90;;
73170;SDS011;61381;50.118;19.962;2023-08-07T08:03:16;0.80;;;0.80;;
73170;SDS011;61381;50.118;19.962;2023-08-07T08:08:17;2.17;;;0.98;;
73170;SDS011;61381;50.118;19.962;2023-08-07T08:13:19;1.40;;;1.30;;
73170;SDS011;61381;50.118;19.962;2023-08-07T08:18:21;1.10;;;1.00;;
73170;SDS011;61381;50.118;19.962;2023-08-07T08:23:21;1.52;;;1.10;;
73170;SDS011;61381;50.118;19.962;2023-08-07T08:28:24;2.33;;;1.15;;
73170;SDS011;61381;50.118;19.962;2023-08-07T08:33:24;1.20;;;1.10;;
73170;SDS011;61381;50.118;19.962;2023-08-07T08:38:25;2.58;;;0.90;;
73170;SDS011;61381;50.118;19.962;2023-08-07T08:43:27;1.42;;;0.80;;
73170;SDS011;61381;50.118;19.962;2023-08-07T08:48:35;0.88;;;0.68;;
73170;SDS011;61381;50.118;19.962;2023-08-07T08:53:38;1.00;;;0.77;;
73170;SDS011;61381;50.118;19.962;2023-08-07T08:58:41;0.73;;;0.70;;
73170;SDS011;61381;50.118;19.962;2023-08-07T09:03:42;0.57;;;0.50;;
73170;SDS011;61381;50.118;19.962;2023-08-07T09:08:44;0.73;;;0.55;;
73170;SDS011;61381;50.118;19.962;2023-08-07T09:13:48;0.65;;;0.60;;
73170;SDS011;61381;50.118;19.962;2023-08-07T09:18:49;0.88;;;0.80;;
73170;SDS011;61381;50.118;19.962;2023-08-07T09:23:50;1.15;;;0.82;;
73170;SDS011;61381;50.118;19.962;2023-08-07T09:28:52;1.65;;;0.55;;
73170;SDS011;61381;50.118;19.962;2023-08-07T09:33:53;0.68;;;0.65;;
73170;SDS011;61381;50.118;19.962;2023-08-07T09:38:54;1.00;;;0.90;;
73170;SDS011;61381;50.118;19.962;2023-08-07T09:43:56;2.22;;;1.15;;
73170;SDS011;61381;50.118;19.962;2023-08-07T09:48:58;1.25;;;1.15;;
73170;SDS011;61381;50.118;19.962;2023-08-07T09:53:58;0.55;;;0.50;;
73170;SDS011;61381;50.118;19.962;2023-08-07T09:59:01;0.63;;;0.60;;
73170;SDS011;61381;50.118;19.962;2023-08-07T10:04:02;1.00;;;0.40;;
73170;SDS011;61381;50.118;19.962;2023-08-07T10:09:03;3.20;;;0.80;;
73170;SDS011;61381;50.118;19.962;2023-08-07T10:14:05;1.35;;;0.70;;
73170;SDS011;61381;50.118;19.962;2023-08-07T10:19:06;2.30;;;1.00;;
73170;SDS011;61381;50.118;19.962;2023-08-07T10:24:08;1.33;;;0.93;;
73170;SDS011;61381;50.118;19.962;2023-08-07T10:29:12;1.45;;;0.95;;
73170;SDS011;61381;50.118;19.962;2023-08-07T10:34:15;0.88;;;0.70;;
73170;SDS011;61381;50.118;19.962;2023-08-07T10:39:15;0.80;;;0.80;;
73170;SDS011;61381;50.118;19.962;2023-08-07T10:44:18;1.10;;;0.60;;
73170;SDS011;61381;50.118;19.962;2023-08-07T10:49:33;1.27;;;0.60;;
73170;SDS011;61381;50.118;19.962;2023-08-07T10:54:38;0.70;;;0.70;;
73170;SDS011;61381;50.118;19.962;2023-08-07T10:59:44;0.70;;;0.50;;
73170;SDS011;61381;50.118;19.962;2023-08-07T11:04:49;1.10;;;0.80;;
73170;SDS011;61381;50.118;19.962;2023-08-07T11:09:52;1.02;;;0.70;;
73170;SDS011;61381;50.118;19.962;2023-08-07T11:14:54;1.27;;;0.82;;
73170;SDS011;61381;50.118;19.962;2023-08-07T11:19:56;2.17;;;0.93;;
73170;SDS011;61381;50.118;19.962;2023-08-07T11:24:57;1.50;;;0.90;;
73170;SDS011;61381;50.118;19.962;2023-08-07T11:29:59;0.90;;;0.80;;
73170;SDS011;61381;50.118;19.962;2023-08-07T11:35:00;1.55;;;1.42;;
73170;SDS011;61381;50.118;19.962;2023-08-07T11:40:01;1.85;;;1.13;;
73170;SDS011;61381;50.118;19.962;2023-08-07T11:45:05;1.05;;;0.88;;
73170;SDS011;61381;50.118;19.962;2023-08-07T11:50:07;1.58;;;1.10;;
73170;SDS011;61381;50.118;19.962;2023-08-07T11:55:10;1.98;;;0.82;;
73170;SDS011;61381;50.118;19.962;2023-08-07T12:00:12;1.80;;;0.88;;
73170;SDS011;61381;50.118;19.962;2023-08-07T12:05:13;1.10;;;0.70;;
73170;SDS011;61381;50.118;19.962;2023-08-07T12:10:15;1.08;;;0.73;;
73170;SDS011;61381;50.118;19.962;2023-08-07T12:15:17;1.08;;;0.93;;
73170;SDS011;61381;50.118;19.962;2023-08-07T12:20:18;1.63;;;1.25;;
73170;SDS011;61381;50.118;19.962;2023-08-07T12:25:19;2.15;;;0.90;;
73170;SDS011;61381;50.118;19.962;2023-08-07T12:30:21;3.72;;;1.25;;
73170;SDS011;61381;50.118;19.962;2023-08-07T12:35:22;2.92;;;1.30;;
73170;SDS011;61381;50.118;19.962;2023-08-07T12:40:23;2.20;;;1.40;;
73170;SDS011;61381;50.118;19.962;2023-08-07T12:45:27;2.80;;;1.23;;
73170;SDS011;61381;50.118;19.962;2023-08-07T12:50:28;2.45;;;1.05;;
73170;SDS011;61381;50.118;19.962;2023-08-07T12:55:29;1.67;;;1.02;;
73170;SDS011;61381;50.118;19.962;2023-08-07T13:00:31;2.97;;;1.40;;
73170;SDS011;61381;50.118;19.962;2023-08-07T13:05:32;3.05;;;1.50;;
73170;SDS011;61381;50.118;19.962;2023-08-07T13:10:33;4.55;;;1.70;;
73170;SDS011;61381;50.118;19.962;2023-08-07T13:15:36;2.10;;;1.30;;
73170;SDS011;61381;50.118;19.962;2023-08-07T13:20:37;2.70;;;1.40;;
73170;SDS011;61381;50.118;19.962;2023-08-07T13:25:38;3.95;;;2.05;;
73170;SDS011;61381;50.118;19.962;2023-08-07T13:30:40;5.50;;;3.35;;
73170;SDS011;61381;50.118;19.962;2023-08-07T13:35:41;2.90;;;2.03;;
73170;SDS011;61381;50.118;19.962;2023-08-07T13:40:42;4.55;;;1.80;;
73170;SDS011;61381;50.118;19.962;2023-08-07T13:45:44;4.25;;;2.20;;
73170;SDS011;61381;50.118;19.962;2023-08-07T13:50:45;3.20;;;1.33;;
73170;SDS011;61381;50.118;19.962;2023-08-07T13:55:46;1.60;;;1.20;;
73170;SDS011;61381;50.118;19.962;2023-08-07T14:00:48;1.77;;;1.23;;
73170;SDS011;61381;50.118;19.962;2023-08-07T14:05:49;2.38;;;1.52;;
73170;SDS011;61381;50.118;19.962;2023-08-07T14:10:50;2.08;;;1.40;;
73170;SDS011;61381;50.118;19.962;2023-08-07T14:15:52;2.22;;;1.40;;
73170;SDS011;61381;50.118;19.962;2023-08-07T14:20:53;3.45;;;1.67;;
73170;SDS011;61381;50.118;19.962;2023-08-07T14:25:54;2.38;;;1.67;;
73170;SDS011;61381;50.118;19.962;2023-08-07T14:30:57;3.78;;;1.58;;
73170;SDS011;61381;50.118;19.962;2023-08-07T14:35:58;2.95;;;1.77;;
73170;SDS011;61381;50.118;19.962;2023-08-07T14:40:59;2.85;;;1.80;;
73170;SDS011;61381;50.118;19.962;2023-08-07T14:46:01;3.92;;;2.15;;
73170;SDS011;61381;50.118;19.962;2023-08-07T14:51:02;4.18;;;2.17;;
73170;SDS011;61381;50.118;19.962;2023-08-07T14:56:03;4.38;;;2.40;;
73170;SDS011;61381;50.118;19.962;2023-08-07T15:01:05;4.65;;;2.25;;
73170;SDS011;61381;50.118;19.962;2023-08-07T15:06:06;3.97;;;1.98;;
73170;SDS011;61381;50.118;19.962;2023-08-07T15:11:07;2.67;;;2.30;;
73170;SDS011;61381;50.118;19.962;2023-08-07T15:16:09;3.33;;;2.25;;
73170;SDS011;61381;50.118;19.962;2023-08-07T15:21:10;3.60;;;2.10;;
73170;SDS011;61381;50.118;19.962;2023-08-07T15:26:11;3.42;;;1.88;;
73170;SDS011;61381;50.118;19.962;2023-08-07T15:31:13;2.97;;;1.80;;
73170;SDS011;61381;50.118;19.962;2023-08-07T15:36:14;3.05;;;2.17;;
73170;SDS011;61381;50.118;19.962;2023-08-07T15:41:15;2.55;;;2.03;;
73170;SDS011;61381;50.118;19.962;2023-08-07T15:46:17;3.88;;;1.63;;
73170;SDS011;61381;50.118;19.962;2023-08-07T15:51:18;4.88;;;2.13;;
73170;SDS011;61381;50.118;19.962;2023-08-07T15:56:19;1.73;;;1.58;;
73170;SDS011;61381;50.118;19.962;2023-08-07T16:01:22;2.92;;;1.90;;
73170;SDS011;61381;50.118;19.962;2023-08-07T16:06:23;2.10;;;1.50;;
73170;SDS011;61381;50.118;19.962;2023-08-07T16:11:25;3.05;;;1.80;;
73170;SDS011;61381;50.118;19.962;2023-08-07T16:16:27;3.30;;;1.70;;
73170;SDS011;61381;50.118;19.962;2023-08-07T16:21:28;2.58;;;1.80;;
73170;SDS011;61381;50.118;19.962;2023-08-07T16:26:30;2.83;;;2.20;;
73170;SDS011;61381;50.118;19.962;2023-08-07T16:31:32;3.75;;;2.38;;
73170;SDS011;61381;50.118;19.962;2023-08-07T16:36:33;3.38;;;1.90;;
73170;SDS011;61381;50.118;19.962;2023-08-07T16:41:34;2.28;;;1.30;;
73170;SDS011;61381;50.118;19.962;2023-08-07T16:46:36;3.28;;;1.55;;
73170;SDS011;61381;50.118;19.962;2023-08-07T16:51:37;3.65;;;1.90;;
73170;SDS011;61381;50.118;19.962;2023-08-07T16:56:38;4.63;;;1.63;;
73170;SDS011;61381;50.118;19.962;2023-08-07T17:01:40;5.53;;;1.50;;
73170;SDS011;61381;50.118;19.962;2023-08-07T17:06:41;2.53;;;1.40;;
73170;SDS011;61381;50.118;19.962;2023-08-07T17:11:42;3.22;;;1.55;;
73170;SDS011;61381;50.118;19.962;2023-08-07T17:16:45;1.83;;;1.45;;
73170;SDS011;61381;50.118;19.962;2023-08-07T17:21:46;2.95;;;1.63;;
73170;SDS011;61381;50.118;19.962;2023-08-07T17:26:46;1.67;;;1.30;;
73170;SDS011;61381;50.118;19.962;2023-08-07T17:31:49;3.22;;;1.95;;
73170;SDS011;61381;50.118;19.962;2023-08-07T17:36:49;2.80;;;1.98;;
73170;SDS011;61381;50.118;19.962;2023-08-07T17:41:50;5.15;;;1.88;;
73170;SDS011;61381;50.118;19.962;2023-08-07T17:46:53;3.63;;;2.10;;
73170;SDS011;61381;50.118;19.962;2023-08-07T17:51:54;2.75;;;1.48;;
73170;SDS011;61381;50.118;19.962;2023-08-07T17:56:55;3.42;;;2.13;;
73170;SDS011;61381;50.118;19.962;2023-08-07T18:01:58;3.80;;;2.17;;
73170;SDS011;61381;50.118;19.962;2023-08-07T18:06:59;4.72;;;2.42;;
73170;SDS011;61381;50.118;19.962;2023-08-07T18:12:00;3.60;;;2.22;;
73170;SDS011;61381;50.118;19.962;2023-08-07T18:17:03;3.42;;;2.15;;
73170;SDS011;61381;50.118;19.962;2023-08-07T18:22:04;3.55;;;2.33;;
73170;SDS011;61381;50.118;19.962;2023-08-07T18:27:05;3.40;;;2.00;;
73170;SDS011;61381;50.118;19.962;2023-08-07T18:32:08;4.97;;;2.65;;
73170;SDS011;61381;50.118;19.962;2023-08-07T18:37:09;4.03;;;2.22;;
73170;SDS011;61381;50.118;19.962;2023-08-07T18:42:09;3.90;;;2.47;;
73170;SDS011;61381;50.118;19.962;2023-08-07T18:47:12;4.65;;;2.30;;
73170;SDS011;61381;50.118;19.962;2023-08-07T18:52:13;3.10;;;2.22;;
73170;SDS011;61381;50.118;19.962;2023-08-07T18:57:14;3.92;;;2.78;;
73170;SDS011;61381;50.118;19.962;2023-08-07T19:02:16;3.55;;;2.42;;
73170;SDS011;61381;50.118;19.962;2023-08-07T19:07:17;3.30;;;1.98;;
73170;SDS011;61381;50.118;19.962;2023-08-07T19:12:18;3.60;;;2.50;;
73170;SDS011;61381;50.118;19.962;2023-08-07T19:17:20;3.53;;;2.45;;
73170;SDS011;61381;50.118;19.962;2023-08-07T19:22:21;2.58;;;1.80;;
73170;SDS011;61381;50.118;19.962;2023-08-07T19:27:22;3.03;;;2.40;;
73170;SDS011;61381;50.118;19.962;2023-08-07T19:32:24;2.65;;;1.90;;
73170;SDS011;61381;50.118;19.962;2023-08-07T19:37:25;3.85;;;2.80;;
73170;SDS011;61381;50.118;19.962;2023-08-07T19:42:26;4.25;;;2.03;;
73170;SDS011;61381;50.118;19.962;2023-08-07T19:47:29;4.70;;;2.55;;
73170;SDS011;61381;50.118;19.962;2023-08-07T19:52:30;2.88;;;2.15;;
73170;SDS011;61381;50.118;19.962;2023-08-07T19:57:30;3.78;;;2.50;;
73170;SDS011;61381;50.118;19.962;2023-08-07T20:02:33;2.42;;;2.22;;
73170;SDS011;61381;50.118;19.962;2023-08-07T20:07:35;2.53;;;2.00;;
73170;SDS011;61381;50.118;19.962;2023-08-07T20:12:37;3.22;;;1.90;;
73170;SDS011;61381;50.118;19.962;2023-08-07T20:17:39;2.70;;;2.30;;
73170;SDS011;61381;50.118;19.962;2023-08-07T20:22:40;2.83;;;2.10;;
73170;SDS011;61381;50.118;19.962;2023-08-07T20:27:42;4.18;;;2.22;;
73170;SDS011;61381;50.118;19.962;2023-08-07T20:32:44;2.85;;;1.63;;
73170;SDS011;61381;50.118;19.962;2023-08-07T20:37:45;2.25;;;1.83;;
73170;SDS011;61381;50.118;19.962;2023-08-07T20:42:46;2.53;;;2.22;;
73170;SDS011;61381;50.118;19.962;2023-08-07T20:47:48;2.35;;;1.85;;
73170;SDS011;61381;50.118;19.962;2023-08-07T20:52:49;2.88;;;1.63;;
73170;SDS011;61381;50.118;19.962;2023-08-07T20:57:50;3.55;;;1.92;;
73170;SDS011;61381;50.118;19.962;2023-08-07T21:02:52;3.10;;;1.92;;
73170;SDS011;61381;50.118;19.962;2023-08-07T21:07:53;2.63;;;1.60;;
73170;SDS011;61381;50.118;19.962;2023-08-07T21:12:54;2.33;;;1.48;;
73170;SDS011;61381;50.118;19.962;2023-08-07T21:17:56;2.53;;;1.50;;
73170;SDS011;61381;50.118;19.962;2023-08-07T21:22:57;1.48;;;1.17;;
73170;SDS011;61381;50.118;19.962;2023-08-07T21:27:58;2.85;;;1.33;;
73170;SDS011;61381;50.118;19.962;2023-08-07T21:33:00;3.88;;;1.77;;
73170;SDS011;61381;50.118;19.962;2023-08-07T21:38:01;2.42;;;1.40;;
73170;SDS011;61381;50.118;19.962;2023-08-07T21:43:03;2.42;;;1.85;;
73170;SDS011;61381;50.118;19.962;2023-08-07T21:48:06;2.35;;;1.50;;
73170;SDS011;61381;50.118;19.962;2023-08-07T21:53:07;1.88;;;1.27;;
73170;SDS011;61381;50.118;19.962;2023-08-07T21:58:07;3.08;;;1.55;;
73170;SDS011;61381;50.118;19.962;2023-08-07T22:03:10;1.52;;;1.30;;
73170;SDS011;61381;50.118;19.962;2023-08-07T22:08:11;2.38;;;1.55;;
73170;SDS011;61381;50.118;19.962;2023-08-07T22:13:11;1.63;;;1.23;;
73170;SDS011;61381;50.118;19.962;2023-08-07T22:18:14;1.88;;;1.38;;
73170;SDS011;61381;50.118;19.962;2023-08-07T22:23:14;4.00;;;1.80;;
73170;SDS011;61381;50.118;19.962;2023-08-07T22:28:15;2.38;;;1.60;;
73170;SDS011;61381;50.118;19.962;2023-08-07T22:33:18;2.15;;;1.42;;
73170;SDS011;61381;50.118;19.962;2023-08-07T22:38:18;2.17;;;1.55;;
73170;SDS011;61381;50.118;19.962;2023-08-07T22:43:19;2.47;;;1.60;;
73170;SDS011;61381;50.118;19.962;2023-08-07T22:48:22;2.53;;;1.60;;
73170;SDS011;61381;50.118;19.962;2023-08-07T22:53:23;1.60;;;1.50;;
73170;SDS011;61381;50.118;19.962;2023-08-07T22:58:23;2.65;;;1.30;;
73170;SDS011;61381;50.118;19.962;2023-08-07T23:03:26;1.77;;;1.20;;
73170;SDS011;61381;50.118;19.962;2023-08-07T23:08:27;1.73;;;1.02;;
73170;SDS011;61381;50.118;19.962;2023-08-07T23:13:27;1.75;;;1.20;;
73170;SDS011;61381;50.118;19.962;2023-08-07T23:18:30;2.88;;;1.27;;
73170;SDS011;61381;50.118;19.962;2023-08-07T23:23:31;1.10;;;1.00;;
73170;SDS011;61381;50.118;19.962;2023-08-07T23:28:31;1.65;;;1.40;;
73170;SDS011;61381;50.118;19.962;2023-08-07T23:33:34;3.63;;;1.38;;
73170;SDS011;61381;50.118;19.962;2023-08-07T23:38:35;1.50;;;1.10;;
73170;SDS011;61381;50.118;19.962;2023-08-07T23:43:35;1.52;;;1.10;;
73170;SDS011;61381;50.118;19.962;2023-08-07T23:48:38;2.78;;;1.23;;
73170;SDS011;61381;50.118;19.962;2023-08-07T23:53:39;2.53;;;1.15;;
73170;SDS011;61381;50.118;19.962;2023-08-07T23:58:40;2.28;;;1.30;;
